sensor_id;sensor_type;location;lat;lon;timestamp;P1;durP1;ratioP1;P2;durP2;ratioP2
80400;SDS011;69727;53.132;8.230;2024-01-07T00:16:48;8.35;;;4.28;;
80400;SDS011;69727;53.132;8.230;2024-01-07T00:27:18;8.80;;;4.80;;
80400;SDS011;69727;53.132;8.230;2024-01-07T00:34:05;11.57;;;4.47;;
80400;SDS011;69727;53.132;8.230;2024-01-07T00:41:03;9.20;;;4.03;;
80400;SDS011;69727;53.132;8.230;2024-01-07T01:08:19;8.90;;;3.72;;
80400;SDS011;69727;53.132;8.230;2024-01-07T01:15:23;7.55;;;3.58;;
80400;SDS011;69727;53.132;8.230;2024-01-07T01:25:13;7.45;;;3.50;;
80400;SDS011;69727;53.132;8.230;2024-01-07T01:35:41;8.75;;;3.85;;
80400;SDS011;69727;53.132;8.230;2024-01-07T01:42:26;9.90;;;3.47;;
80400;SDS011;69727;53.132;8.230;2024-01-07T01:46:06;8.80;;;3.60;;
80400;SDS011;69727;53.132;8.230;2024-01-07T02:05:49;6.55;;;3.10;;
80400;SDS011;69727;53.132;8.230;2024-01-07T02:12:52;6.53;;;2.72;;
80400;SDS011;69727;53.132;8.230;2024-01-07T02:16:20;11.05;;;2.80;;
80400;SDS011;69727;53.132;8.230;2024-01-07T02:23:01;6.95;;;2.75;;
80400;SDS011;69727;53.132;8.230;2024-01-07T02:26:42;5.82;;;2.65;;
80400;SDS011;69727;53.132;8.230;2024-01-07T02:30:20;5.75;;;2.78;;
80400;SDS011;69727;53.132;8.230;2024-01-07T02:40:41;7.18;;;2.67;;
80400;SDS011;69727;53.132;8.230;2024-01-07T02:44:10;5.55;;;2.35;;
80400;SDS011;69727;53.132;8.230;2024-01-07T02:50:52;6.07;;;2.30;;
80400;SDS011;69727;53.132;8.230;2024-01-07T02:54:35;5.20;;;2.17;;
80400;SDS011;69727;53.132;8.230;2024-01-07T02:58:28;6.15;;;2.38;;
80400;SDS011;69727;53.132;8.230;2024-01-07T03:05:15;5.45;;;2.35;;
80400;SDS011;69727;53.132;8.230;2024-01-07T03:12:17;7.50;;;2.42;;
80400;SDS011;69727;53.132;8.230;2024-01-07T03:15:23;6.88;;;2.80;;
80400;SDS011;69727;53.132;8.230;2024-01-07T03:25:57;6.57;;;2.60;;
80400;SDS011;69727;53.132;8.230;2024-01-07T03:29:41;8.80;;;3.10;;
80400;SDS011;69727;53.132;8.230;2024-01-07T03:35:53;7.43;;;3.00;;
80400;SDS011;69727;53.132;8.230;2024-01-07T03:39:20;6.80;;;2.42;;
80400;SDS011;69727;53.132;8.230;2024-01-07T03:42:03;6.85;;;2.67;;
80400;SDS011;69727;53.132;8.230;2024-01-07T03:48:53;5.70;;;2.13;;
80400;SDS011;69727;53.132;8.230;2024-01-07T04:42:33;3.90;;;1.45;;
80400;SDS011;69727;53.132;8.230;2024-01-07T04:49:36;4.40;;;1.23;;
80400;SDS011;69727;53.132;8.230;2024-01-07T04:53:04;3.92;;;1.60;;
80400;SDS011;69727;53.132;8.230;2024-01-07T05:00:04;3.95;;;1.40;;
80400;SDS011;69727;53.132;8.230;2024-01-07T05:27:00;3.53;;;1.10;;
80400;SDS011;69727;53.132;8.230;2024-01-07T05:41:03;6.03;;;1.55;;
80400;SDS011;69727;53.132;8.230;2024-01-07T05:44:03;2.80;;;1.08;;
80400;SDS011;69727;53.132;8.230;2024-01-07T05:47:39;6.53;;;1.63;;
80400;SDS011;69727;53.132;8.230;2024-01-07T07:18:58;4.28;;;1.30;;
80400;SDS011;69727;53.132;8.230;2024-01-07T07:39:47;3.90;;;1.17;;
80400;SDS011;69727;53.132;8.230;2024-01-07T08:14:57;3.72;;;1.20;;
80400;SDS011;69727;53.132;8.230;2024-01-07T08:24:21;3.28;;;1.20;;
80400;SDS011;69727;53.132;8.230;2024-01-07T08:37:54;5.60;;;1.65;;
80400;SDS011;69727;53.132;8.230;2024-01-07T08:54:45;6.63;;;1.90;;
80400;SDS011;69727;53.132;8.230;2024-01-07T08:57:51;4.10;;;1.73;;
80400;SDS011;69727;53.132;8.230;2024-01-07T09:00:17;5.47;;;2.40;;
80400;SDS011;69727;53.132;8.230;2024-01-07T09:02:43;6.05;;;2.08;;
80400;SDS011;69727;53.132;8.230;2024-01-07T09:05:08;5.35;;;1.58;;
80400;SDS011;69727;53.132;8.230;2024-01-07T09:07:34;3.47;;;1.38;;
80400;SDS011;69727;53.132;8.230;2024-01-07T09:09:59;3.10;;;1.30;;
80400;SDS011;69727;53.132;8.230;2024-01-07T09:12:26;3.00;;;1.17;;
80400;SDS011;69727;53.132;8.230;2024-01-07T09:15:49;3.53;;;1.60;;
80400;SDS011;69727;53.132;8.230;2024-01-07T09:29:22;4.10;;;1.83;;
80400;SDS011;69727;53.132;8.230;2024-01-07T09:35:54;6.28;;;2.00;;
80400;SDS011;69727;53.132;8.230;2024-01-07T09:43:04;4.80;;;1.88;;
80400;SDS011;69727;53.132;8.230;2024-01-07T09:49:27;6.47;;;2.03;;
80400;SDS011;69727;53.132;8.230;2024-01-07T09:52:16;4.82;;;2.38;;
80400;SDS011;69727;53.132;8.230;2024-01-07T09:55:27;5.45;;;2.50;;
80400;SDS011;69727;53.132;8.230;2024-01-07T10:02:20;6.05;;;2.60;;
80400;SDS011;69727;53.132;8.230;2024-01-07T10:05:50;6.25;;;2.78;;
80400;SDS011;69727;53.132;8.230;2024-01-07T10:09:12;6.50;;;3.03;;
80400;SDS011;69727;53.132;8.230;2024-01-07T11:00:01;5.50;;;2.35;;
80400;SDS011;69727;53.132;8.230;2024-01-07T11:02:52;6.88;;;2.90;;
80400;SDS011;69727;53.132;8.230;2024-01-07T11:05:54;6.55;;;2.72;;
80400;SDS011;69727;53.132;8.230;2024-01-07T11:12:01;5.57;;;2.35;;
80400;SDS011;69727;53.132;8.230;2024-01-07T11:15:04;7.50;;;2.63;;
80400;SDS011;69727;53.132;8.230;2024-01-07T11:20:02;7.57;;;2.83;;
80400;SDS011;69727;53.132;8.230;2024-01-07T11:22:31;8.15;;;3.13;;
80400;SDS011;69727;53.132;8.230;2024-01-07T11:25:01;9.63;;;3.25;;
80400;SDS011;69727;53.132;8.230;2024-01-07T11:27:31;6.43;;;2.70;;
80400;SDS011;69727;53.132;8.230;2024-01-07T11:30:07;6.75;;;3.47;;
80400;SDS011;69727;53.132;8.230;2024-01-07T11:32:44;8.05;;;2.83;;
80400;SDS011;69727;53.132;8.230;2024-01-07T11:35:13;6.82;;;2.72;;
80400;SDS011;69727;53.132;8.230;2024-01-07T11:37:40;5.35;;;2.28;;
80400;SDS011;69727;53.132;8.230;2024-01-07T11:40:16;6.88;;;2.78;;
80400;SDS011;69727;53.132;8.230;2024-01-07T11:42:44;6.38;;;2.33;;
80400;SDS011;69727;53.132;8.230;2024-01-07T11:45:10;5.38;;;2.30;;
80400;SDS011;69727;53.132;8.230;2024-01-07T11:47:36;4.53;;;2.40;;
80400;SDS011;69727;53.132;8.230;2024-01-07T11:50:04;5.68;;;2.35;;
80400;SDS011;69727;53.132;8.230;2024-01-07T11:52:32;5.53;;;2.60;;
80400;SDS011;69727;53.132;8.230;2024-01-07T11:55:08;6.80;;;2.47;;
80400;SDS011;69727;53.132;8.230;2024-01-07T11:57:41;7.05;;;2.65;;
80400;SDS011;69727;53.132;8.230;2024-01-07T12:00:24;6.70;;;2.38;;
80400;SDS011;69727;53.132;8.230;2024-01-07T12:06:03;6.63;;;2.80;;
80400;SDS011;69727;53.132;8.230;2024-01-07T12:11:49;5.97;;;2.50;;
80400;SDS011;69727;53.132;8.230;2024-01-07T15:48:45;6.47;;;3.22;;
80400;SDS011;69727;53.132;8.230;2024-01-07T15:59:29;6.05;;;2.85;;
80400;SDS011;69727;53.132;8.230;2024-01-07T16:02:54;9.52;;;2.90;;
80400;SDS011;69727;53.132;8.230;2024-01-07T16:16:23;5.03;;;2.25;;
80400;SDS011;69727;53.132;8.230;2024-01-07T21:17:33;7.70;;;3.17;;
80400;SDS011;69727;53.132;8.230;2024-01-07T21:20:07;7.40;;;3.13;;
80400;SDS011;69727;53.132;8.230;2024-01-07T21:22:55;9.00;;;3.08;;
80400;SDS011;69727;53.132;8.230;2024-01-07T21:26:19;8.23;;;3.20;;
80400;SDS011;69727;53.132;8.230;2024-01-07T21:29:51;8.73;;;3.10;;
80400;SDS011;69727;53.132;8.230;2024-01-07T21:32:24;6.45;;;2.97;;
80400;SDS011;69727;53.132;8.230;2024-01-07T21:35:17;5.60;;;2.67;;
80400;SDS011;69727;53.132;8.230;2024-01-07T21:37:43;5.50;;;2.78;;
80400;SDS011;69727;53.132;8.230;2024-01-07T21:40:09;7.60;;;3.45;;
80400;SDS011;69727;53.132;8.230;2024-01-07T21:42:34;9.15;;;3.33;;
80400;SDS011;69727;53.132;8.230;2024-01-07T21:45:00;6.63;;;3.33;;
80400;SDS011;69727;53.132;8.230;2024-01-07T21:47:25;7.57;;;2.78;;
80400;SDS011;69727;53.132;8.230;2024-01-07T21:49:51;6.07;;;2.97;;
80400;SDS011;69727;53.132;8.230;2024-01-07T21:52:17;9.20;;;3.40;;
80400;SDS011;69727;53.132;8.230;2024-01-07T21:54:50;8.20;;;3.13;;
80400;SDS011;69727;53.132;8.230;2024-01-07T21:57:18;9.30;;;3.35;;
80400;SDS011;69727;53.132;8.230;2024-01-07T21:59:44;7.50;;;3.78;;
80400;SDS011;69727;53.132;8.230;2024-01-07T22:02:10;8.30;;;3.88;;
80400;SDS011;69727;53.132;8.230;2024-01-07T22:04:36;6.50;;;3.42;;
80400;SDS011;69727;53.132;8.230;2024-01-07T22:07:03;7.70;;;3.30;;
80400;SDS011;69727;53.132;8.230;2024-01-07T22:09:29;8.73;;;3.42;;
80400;SDS011;69727;53.132;8.230;2024-01-07T22:11:54;8.07;;;3.60;;
80400;SDS011;69727;53.132;8.230;2024-01-07T22:14:20;6.32;;;2.60;;
80400;SDS011;69727;53.132;8.230;2024-01-07T22:16:46;8.55;;;3.60;;
80400;SDS011;69727;53.132;8.230;2024-01-07T22:19:11;8.88;;;4.00;;
80400;SDS011;69727;53.132;8.230;2024-01-07T22:21:37;8.23;;;3.70;;
80400;SDS011;69727;53.132;8.230;2024-01-07T22:24:02;8.47;;;3.40;;
80400;SDS011;69727;53.132;8.230;2024-01-07T22:26:28;6.80;;;3.45;;
80400;SDS011;69727;53.132;8.230;2024-01-07T22:28:53;8.18;;;3.45;;
80400;SDS011;69727;53.132;8.230;2024-01-07T22:31:19;6.90;;;3.53;;
80400;SDS011;69727;53.132;8.230;2024-01-07T22:33:44;8.35;;;4.00;;
80400;SDS011;69727;53.132;8.230;2024-01-07T22:36:13;8.75;;;3.45;;
80400;SDS011;69727;53.132;8.230;2024-01-07T22:38:38;6.45;;;3.35;;
80400;SDS011;69727;53.132;8.230;2024-01-07T22:41:04;10.05;;;4.00;;
80400;SDS011;69727;53.132;8.230;2024-01-07T22:43:29;8.00;;;4.20;;
80400;SDS011;69727;53.132;8.230;2024-01-07T22:45:55;9.55;;;4.10;;
80400;SDS011;69727;53.132;8.230;2024-01-07T22:48:21;10.68;;;3.88;;
80400;SDS011;69727;53.132;8.230;2024-01-07T22:50:46;8.85;;;4.03;;
80400;SDS011;69727;53.132;8.230;2024-01-07T22:53:12;7.68;;;3.33;;
80400;SDS011;69727;53.132;8.230;2024-01-07T22:55:38;9.77;;;3.60;;
80400;SDS011;69727;53.132;8.230;2024-01-07T22:58:05;6.68;;;3.63;;
80400;SDS011;69727;53.132;8.230;2024-01-07T23:00:31;7.13;;;2.83;;
80400;SDS011;69727;53.132;8.230;2024-01-07T23:03:03;8.57;;;3.60;;
80400;SDS011;69727;53.132;8.230;2024-01-07T23:05:29;7.10;;;3.25;;
80400;SDS011;69727;53.132;8.230;2024-01-07T23:07:56;7.00;;;3.17;;
80400;SDS011;69727;53.132;8.230;2024-01-07T23:10:22;8.73;;;3.75;;
80400;SDS011;69727;53.132;8.230;2024-01-07T23:12:47;8.18;;;4.03;;
80400;SDS011;69727;53.132;8.230;2024-01-07T23:15:14;7.13;;;3.75;;
80400;SDS011;69727;53.132;8.230;2024-01-07T23:17:40;7.70;;;3.63;;
80400;SDS011;69727;53.132;8.230;2024-01-07T23:20:06;7.75;;;3.20;;
80400;SDS011;69727;53.132;8.230;2024-01-07T23:22:34;8.00;;;3.53;;
80400;SDS011;69727;53.132;8.230;2024-01-07T23:25:00;8.10;;;3.58;;
80400;SDS011;69727;53.132;8.230;2024-01-07T23:27:26;8.38;;;3.50;;
80400;SDS011;69727;53.132;8.230;2024-01-07T23:29:51;10.75;;;4.10;;
80400;SDS011;69727;53.132;8.230;2024-01-07T23:32:17;10.77;;;4.40;;
80400;SDS011;69727;53.132;8.230;2024-01-07T23:34:42;9.55;;;4.30;;
80400;SDS011;69727;53.132;8.230;2024-01-07T23:37:08;7.85;;;3.90;;
80400;SDS011;69727;53.132;8.230;2024-01-07T23:39:33;10.27;;;4.15;;
80400;SDS011;69727;53.132;8.230;2024-01-07T23:41:59;9.93;;;4.57;;
80400;SDS011;69727;53.132;8.230;2024-01-07T23:44:24;9.23;;;4.28;;
80400;SDS011;69727;53.132;8.230;2024-01-07T23:46:50;8.65;;;4.13;;
80400;SDS011;69727;53.132;8.230;2024-01-07T23:49:15;8.50;;;3.77;;
80400;SDS011;69727;53.132;8.230;2024-01-07T23:51:42;7.57;;;3.92;;
80400;SDS011;69727;53.132;8.230;2024-01-07T23:54:07;9.30;;;4.15;;
80400;SDS011;69727;53.132;8.230;2024-01-07T23:56:36;8.77;;;3.95;;
80400;SDS011;69727;53.132;8.230;2024-01-07T23:59:04;10.98;;;4.15;;
